createdAt,value
2016-08-12T00:00:02.077Z,0
2016-08-12T00:00:26.196Z,0
2016-08-12T00:00:50.379Z,0
2016-08-12T00:01:14.550Z,0
2016-08-12T00:01:38.721Z,0
2016-08-12T00:02:02.846Z,0
2016-08-12T00:02:26.996Z,0
2016-08-12T00:02:51.153Z,0
2016-08-12T00:03:15.300Z,0
2016-08-12T00:03:39.411Z,0
2016-08-12T00:04:03.554Z,0
2016-08-12T00:04:27.710Z,0
2016-08-12T00:04:51.831Z,0
2016-08-12T00:05:15.971Z,0
2016-08-12T00:05:40.153Z,0
2016-08-12T00:06:04.303Z,0
2016-08-12T00:06:28.445Z,0
2016-08-12T00:06:52.557Z,0
2016-08-12T00:07:16.701Z,0
2016-08-12T00:07:40.834Z,0
2016-08-12T00:08:05.008Z,0
2016-08-12T00:08:29.237Z,0
2016-08-12T00:08:53.465Z,0
2016-08-12T00:09:17.585Z,0
2016-08-12T00:09:41.707Z,0
2016-08-12T00:10:05.813Z,0
2016-08-12T00:10:29.922Z,0
2016-08-12T00:10:54.053Z,0
2016-08-12T00:11:18.224Z,0
2016-08-12T00:11:42.330Z,0
2016-08-12T00:12:06.483Z,0
2016-08-12T00:12:30.619Z,0
2016-08-12T00:12:54.729Z,0
2016-08-12T00:13:18.843Z,0
2016-08-12T00:13:42.963Z,0
2016-08-12T00:14:07.089Z,0
2016-08-12T00:14:31.250Z,0
2016-08-12T00:14:55.410Z,0
2016-08-12T00:15:19.526Z,0
2016-08-12T00:15:43.698Z,0
2016-08-12T00:16:07.813Z,0
2016-08-12T00:16:31.943Z,0
2016-08-12T00:16:56.090Z,0
2016-08-12T00:17:20.239Z,0
2016-08-12T00:17:44.390Z,0
2016-08-12T00:18:08.620Z,0
2016-08-12T00:18:32.752Z,0
2016-08-12T00:18:56.900Z,0
2016-08-12T00:19:21.038Z,0
2016-08-12T00:19:45.145Z,0
2016-08-12T00:20:09.287Z,0
2016-08-12T00:20:33.435Z,0
2016-08-12T00:20:57.622Z,0
2016-08-12T00:21:21.802Z,0
2016-08-12T00:21:45.911Z,0
2016-08-12T00:22:10.090Z,0
2016-08-12T00:22:34.193Z,0
2016-08-12T00:22:58.327Z,0
2016-08-12T00:23:22.442Z,0
2016-08-12T00:23:46.556Z,0
2016-08-12T00:24:10.674Z,0
2016-08-12T00:24:34.783Z,0
2016-08-12T00:24:58.891Z,0
2016-08-12T00:25:23.019Z,0
2016-08-12T00:25:47.156Z,0
2016-08-12T00:26:11.290Z,0
2016-08-12T00:26:35.416Z,0
2016-08-12T00:26:59.541Z,0
2016-08-12T00:27:23.649Z,0
2016-08-12T00:27:47.770Z,0
2016-08-12T00:28:11.935Z,0
2016-08-12T00:28:36.071Z,0
2016-08-12T00:29:00.192Z,0
2016-08-12T00:29:24.317Z,0
2016-08-12T00:29:48.479Z,0
2016-08-12T00:30:12.621Z,0
2016-08-12T00:30:36.785Z,0
2016-08-12T00:31:00.901Z,0
2016-08-12T00:31:25.031Z,0
2016-08-12T00:31:49.132Z,0
2016-08-12T00:32:13.264Z,0
2016-08-12T00:32:37.387Z,0
2016-08-12T00:33:01.499Z,0
2016-08-12T00:33:25.612Z,0
2016-08-12T00:33:49.754Z,0
2016-08-12T00:34:13.867Z,0
2016-08-12T00:34:38.014Z,0
2016-08-12T00:35:02.129Z,0
2016-08-12T00:35:26.245Z,0
2016-08-12T00:35:50.357Z,0
2016-08-12T00:36:14.500Z,0
2016-08-12T00:36:38.619Z,0
2016-08-12T00:37:02.728Z,0
2016-08-12T00:37:26.861Z,0
2016-08-12T00:37:50.979Z,0
2016-08-12T00:38:15.085Z,0
2016-08-12T00:38:39.217Z,0
2016-08-12T00:39:03.329Z,0
2016-08-12T00:39:27.448Z,0
2016-08-12T00:39:51.573Z,0
2016-08-12T00:40:15.690Z,0
2016-08-12T00:40:39.800Z,0
2016-08-12T00:41:03.903Z,0
2016-08-12T00:41:28.048Z,0
2016-08-12T00:41:52.156Z,0
2016-08-12T00:42:16.307Z,0
2016-08-12T00:42:40.455Z,0
2016-08-12T00:43:04.574Z,0
2016-08-12T00:43:28.686Z,0
2016-08-12T00:43:52.795Z,0
2016-08-12T00:44:16.916Z,0
2016-08-12T00:44:41.029Z,0
2016-08-12T00:45:05.196Z,0
2016-08-12T00:45:29.308Z,0
2016-08-12T00:45:53.427Z,0
2016-08-12T00:46:17.559Z,0
2016-08-12T00:46:41.726Z,0
2016-08-12T00:47:05.847Z,0
2016-08-12T00:47:29.963Z,0
2016-08-12T00:47:54.083Z,0
2016-08-12T00:48:18.194Z,0
2016-08-12T00:48:42.325Z,0
2016-08-12T00:49:06.483Z,0
2016-08-12T00:49:30.654Z,0
2016-08-12T00:49:54.768Z,0
2016-08-12T00:50:18.900Z,0
2016-08-12T00:50:43.006Z,0
2016-08-12T00:51:07.105Z,0
2016-08-12T00:51:31.260Z,0
2016-08-12T00:51:55.379Z,0
2016-08-12T00:52:19.494Z,0
2016-08-12T00:52:43.640Z,0
2016-08-12T00:53:07.740Z,0
2016-08-12T00:53:31.843Z,0
2016-08-12T00:53:55.995Z,0
2016-08-12T00:54:20.111Z,0
2016-08-12T00:54:44.227Z,0
2016-08-12T00:55:08.331Z,0
2016-08-12T00:55:32.473Z,0
2016-08-12T00:55:56.589Z,0
2016-08-12T00:56:20.734Z,0
2016-08-12T00:56:44.863Z,0
2016-08-12T00:57:08.987Z,0
2016-08-12T00:57:33.094Z,0
2016-08-12T00:57:57.184Z,0
2016-08-12T00:58:21.286Z,0
2016-08-12T00:58:45.411Z,0
2016-08-12T00:59:09.526Z,0
2016-08-12T00:59:33.653Z,0
2016-08-12T00:59:57.760Z,0
2016-08-12T01:00:21.851Z,0
2016-08-12T01:00:45.979Z,0
2016-08-12T01:01:10.090Z,0
2016-08-12T01:01:34.184Z,0
2016-08-12T01:01:58.326Z,0
2016-08-12T01:02:22.443Z,0
2016-08-12T01:02:46.565Z,0
2016-08-12T01:03:10.676Z,0
2016-08-12T01:03:34.824Z,0
2016-08-12T01:03:59.046Z,0
2016-08-12T01:04:23.187Z,0
2016-08-12T01:04:47.310Z,0
2016-08-12T01:05:11.462Z,0
2016-08-12T01:05:35.653Z,0
2016-08-12T01:05:59.766Z,0
2016-08-12T01:06:23.899Z,0
2016-08-12T01:06:48.025Z,0
2016-08-12T01:07:12.177Z,0
2016-08-12T01:07:36.281Z,0
2016-08-12T01:08:00.422Z,0
2016-08-12T01:08:24.561Z,0
2016-08-12T01:08:48.657Z,0
2016-08-12T01:09:12.790Z,0
2016-08-12T01:09:36.961Z,0
2016-08-12T01:10:01.097Z,0
2016-08-12T01:10:25.229Z,0
2016-08-12T01:10:49.391Z,0
2016-08-12T01:11:13.530Z,0
2016-08-12T01:11:37.678Z,0
2016-08-12T01:12:01.814Z,0
2016-08-12T01:12:25.931Z,0
2016-08-12T01:12:50.106Z,0
2016-08-12T01:13:14.213Z,0
2016-08-12T01:13:38.370Z,0
2016-08-12T01:14:02.520Z,0
2016-08-12T01:14:26.657Z,0
2016-08-12T01:14:50.812Z,0
2016-08-12T01:15:15.011Z,0
2016-08-12T01:15:39.127Z,0
2016-08-12T01:16:03.255Z,0
2016-08-12T01:16:27.369Z,0
2016-08-12T01:16:51.531Z,0
2016-08-12T01:17:15.644Z,0
2016-08-12T01:17:39.766Z,0
2016-08-12T01:18:03.867Z,0
2016-08-12T01:18:28.001Z,0
2016-08-12T01:18:52.107Z,0
2016-08-12T01:19:16.237Z,0
2016-08-12T01:19:40.398Z,0
2016-08-12T01:20:04.500Z,0
2016-08-12T01:20:28.619Z,0
2016-08-12T01:20:52.702Z,0
2016-08-12T01:21:16.827Z,0
2016-08-12T01:21:40.952Z,0
2016-08-12T01:22:05.088Z,0
2016-08-12T01:22:29.195Z,0
2016-08-12T01:22:53.357Z,0
2016-08-12T01:23:17.522Z,0
2016-08-12T01:23:41.663Z,0
2016-08-12T01:24:05.798Z,0
2016-08-12T01:24:29.907Z,0
2016-08-12T01:24:53.998Z,0
2016-08-12T01:25:18.130Z,0
2016-08-12T01:25:42.259Z,0
2016-08-12T01:26:06.489Z,0
2016-08-12T01:26:30.604Z,0
2016-08-12T01:26:54.708Z,0
2016-08-12T01:27:18.798Z,0
2016-08-12T01:27:42.951Z,0
2016-08-12T01:28:07.109Z,0
2016-08-12T01:28:31.243Z,0
2016-08-12T01:28:55.335Z,0
2016-08-12T01:29:19.524Z,0
2016-08-12T01:29:43.662Z,0
2016-08-12T01:30:07.836Z,0
2016-08-12T01:30:31.952Z,0
2016-08-12T01:30:56.073Z,0
2016-08-12T01:31:20.253Z,0
2016-08-12T01:31:44.391Z,0
2016-08-12T01:32:08.530Z,0
2016-08-12T01:32:32.658Z,0
2016-08-12T01:32:56.791Z,0
2016-08-12T01:33:20.900Z,0
2016-08-12T01:33:45.034Z,0
2016-08-12T01:34:09.138Z,0
2016-08-12T01:34:33.263Z,0
2016-08-12T01:34:57.430Z,0
2016-08-12T01:35:21.568Z,0
2016-08-12T01:35:45.743Z,0
2016-08-12T01:36:09.881Z,0
2016-08-12T01:36:34.009Z,0
2016-08-12T01:36:58.148Z,0
2016-08-12T01:37:22.261Z,0
2016-08-12T01:37:46.456Z,0
2016-08-12T01:38:10.560Z,0
2016-08-12T01:38:34.667Z,0
2016-08-12T01:38:58.783Z,0
2016-08-12T01:39:22.882Z,0
2016-08-12T01:39:47.006Z,0
2016-08-12T01:40:11.112Z,0
2016-08-12T01:40:35.250Z,0
2016-08-12T01:40:59.412Z,0
2016-08-12T01:41:23.559Z,0
2016-08-12T01:41:47.656Z,0
2016-08-12T01:42:11.754Z,0
2016-08-12T01:42:35.869Z,0
2016-08-12T01:42:59.993Z,0
2016-08-12T01:43:24.082Z,0
2016-08-12T01:43:48.228Z,0
2016-08-12T01:44:12.370Z,0
2016-08-12T01:44:36.495Z,0
2016-08-12T01:45:00.638Z,0
2016-08-12T01:45:24.756Z,0
2016-08-12T01:45:48.872Z,0
2016-08-12T01:46:13.063Z,0
2016-08-12T01:46:37.168Z,0
2016-08-12T01:47:01.262Z,0
2016-08-12T01:47:25.398Z,0
2016-08-12T01:47:49.553Z,0
2016-08-12T01:48:13.702Z,0
2016-08-12T01:48:37.853Z,0
2016-08-12T01:49:01.983Z,0
2016-08-12T01:49:26.119Z,0
2016-08-12T01:49:50.330Z,0
2016-08-12T01:50:14.478Z,0
2016-08-12T01:50:38.643Z,0
2016-08-12T01:51:02.799Z,0
2016-08-12T01:51:26.916Z,0
2016-08-12T01:51:51.110Z,0
2016-08-12T01:52:15.251Z,0
2016-08-12T01:52:39.408Z,0
2016-08-12T01:53:03.539Z,0
2016-08-12T01:53:27.671Z,0
2016-08-12T01:53:51.779Z,0
2016-08-12T01:54:15.883Z,0
2016-08-12T01:54:40.006Z,0
2016-08-12T01:55:04.141Z,0
2016-08-12T01:55:28.263Z,0
2016-08-12T01:55:52.366Z,0
2016-08-12T01:56:16.479Z,0
2016-08-12T01:56:40.604Z,0
2016-08-12T01:57:04.709Z,0
2016-08-12T01:57:28.826Z,0
2016-08-12T01:57:52.929Z,0
2016-08-12T01:58:17.039Z,0
2016-08-12T01:58:41.146Z,0
2016-08-12T01:59:05.249Z,0
2016-08-12T01:59:29.353Z,0
2016-08-12T01:59:53.448Z,0
2016-08-12T02:00:17.598Z,0
2016-08-12T02:00:41.726Z,0
2016-08-12T02:01:05.846Z,0
2016-08-12T02:01:29.946Z,0
2016-08-12T02:01:54.104Z,0
2016-08-12T02:02:18.251Z,0
2016-08-12T02:02:42.403Z,0
2016-08-12T02:03:06.528Z,0
2016-08-12T02:03:30.633Z,0
2016-08-12T02:03:54.772Z,0
2016-08-12T02:04:18.915Z,0
2016-08-12T02:04:43.035Z,0
2016-08-12T02:05:07.159Z,0
2016-08-12T02:05:31.293Z,0
2016-08-12T02:05:55.409Z,0
2016-08-12T02:06:19.531Z,0
2016-08-12T02:06:43.656Z,0
2016-08-12T02:07:07.808Z,0
2016-08-12T02:07:31.942Z,0
2016-08-12T02:07:56.086Z,0
2016-08-12T02:08:20.206Z,0
2016-08-12T02:08:44.362Z,0
2016-08-12T02:09:08.501Z,0
2016-08-12T02:09:32.618Z,0
2016-08-12T02:09:56.764Z,0
2016-08-12T02:10:20.930Z,0
2016-08-12T02:10:45.100Z,0
2016-08-12T02:11:09.206Z,0
2016-08-12T02:11:33.313Z,0
2016-08-12T02:11:57.460Z,0
2016-08-12T02:12:21.590Z,0
2016-08-12T02:12:45.696Z,0
2016-08-12T02:13:09.854Z,0
2016-08-12T02:13:34.055Z,0
2016-08-12T02:13:58.189Z,0
2016-08-12T02:14:22.298Z,0
2016-08-12T02:14:46.418Z,0
2016-08-12T02:15:10.526Z,0
2016-08-12T02:15:34.636Z,0
2016-08-12T02:15:58.752Z,0
2016-08-12T02:16:22.882Z,0
2016-08-12T02:16:47.001Z,0
2016-08-12T02:17:11.127Z,0
2016-08-12T02:17:35.261Z,0
2016-08-12T02:17:59.409Z,0
2016-08-12T02:18:23.533Z,0
2016-08-12T02:18:47.633Z,0
2016-08-12T02:19:11.753Z,0
2016-08-12T02:19:35.919Z,0
2016-08-12T02:20:00.023Z,0
2016-08-12T02:20:24.153Z,0
2016-08-12T02:20:48.306Z,0
2016-08-12T02:21:12.420Z,0
2016-08-12T02:21:36.522Z,0
2016-08-12T02:22:00.614Z,0
2016-08-12T02:22:24.710Z,0
2016-08-12T02:22:48.842Z,0
2016-08-12T02:23:12.934Z,0
2016-08-12T02:23:37.048Z,0
2016-08-12T02:24:01.176Z,0
2016-08-12T02:24:25.324Z,0
2016-08-12T02:24:49.430Z,0
2016-08-12T02:25:13.561Z,0
2016-08-12T02:25:37.733Z,0
2016-08-12T02:26:01.873Z,0
2016-08-12T02:26:26.074Z,0
2016-08-12T02:26:50.204Z,0
2016-08-12T02:27:14.369Z,0
2016-08-12T02:27:38.559Z,0
2016-08-12T02:28:02.674Z,0
2016-08-12T02:28:26.807Z,0
2016-08-12T02:28:50.957Z,0
2016-08-12T02:29:15.073Z,0
2016-08-12T02:29:39.254Z,0
2016-08-12T02:30:03.373Z,0
2016-08-12T02:30:27.509Z,0
2016-08-12T02:30:51.679Z,0
2016-08-12T02:31:15.803Z,0
2016-08-12T02:31:39.902Z,0
2016-08-12T02:32:04.075Z,0
2016-08-12T02:32:28.273Z,0
2016-08-12T02:32:52.392Z,0
2016-08-12T02:33:16.481Z,0
2016-08-12T02:33:40.610Z,0
2016-08-12T02:34:04.720Z,0
2016-08-12T02:34:28.822Z,0
2016-08-12T02:34:52.955Z,0
2016-08-12T02:35:17.068Z,0
2016-08-12T02:35:41.174Z,0
2016-08-12T02:36:05.321Z,0
2016-08-12T02:36:29.443Z,0
2016-08-12T02:36:53.536Z,0
2016-08-12T02:37:17.688Z,0
2016-08-12T02:37:41.800Z,0
2016-08-12T02:38:05.941Z,0
2016-08-12T02:38:30.054Z,0
2016-08-12T02:38:54.165Z,0
2016-08-12T02:39:18.285Z,0
2016-08-12T02:39:42.387Z,0
2016-08-12T02:40:06.522Z,0
2016-08-12T02:40:30.607Z,0
2016-08-12T02:40:54.736Z,0
2016-08-12T02:41:18.863Z,0
2016-08-12T02:41:42.970Z,0
2016-08-12T02:42:07.084Z,0
2016-08-12T02:42:31.194Z,0
2016-08-12T02:42:55.325Z,0
2016-08-12T02:43:19.452Z,0
2016-08-12T02:43:43.600Z,0
2016-08-12T02:44:07.711Z,0
2016-08-12T02:44:31.822Z,0
2016-08-12T02:44:55.947Z,0
2016-08-12T02:45:20.065Z,0
2016-08-12T02:45:44.215Z,0
2016-08-12T02:46:08.320Z,0
2016-08-12T02:46:32.424Z,0
2016-08-12T02:46:56.563Z,0
2016-08-12T02:47:20.678Z,0
2016-08-12T02:47:44.785Z,0
2016-08-12T02:48:08.923Z,0
2016-08-12T02:48:33.068Z,0
2016-08-12T02:48:57.170Z,0
2016-08-12T02:49:21.281Z,0
2016-08-12T02:49:45.399Z,0
2016-08-12T02:50:09.509Z,0
2016-08-12T02:50:33.613Z,0
2016-08-12T02:50:57.707Z,0
2016-08-12T02:51:21.818Z,0
2016-08-12T02:51:46.042Z,0
2016-08-12T02:52:10.174Z,0
2016-08-12T02:52:35.103Z,0
2016-08-12T02:52:59.210Z,0
2016-08-12T02:53:23.326Z,0
2016-08-12T02:53:47.423Z,0
2016-08-12T02:54:11.549Z,0
2016-08-12T02:54:35.652Z,0
2016-08-12T02:54:59.763Z,0
2016-08-12T02:55:23.889Z,0
2016-08-12T02:55:48.010Z,0
2016-08-12T02:56:12.109Z,0
2016-08-12T02:56:36.229Z,0
2016-08-12T02:57:00.335Z,0
2016-08-12T02:57:24.465Z,0
2016-08-12T02:57:48.637Z,0
2016-08-12T02:58:12.762Z,0
2016-08-12T02:58:36.876Z,0
2016-08-12T02:59:01.008Z,0
2016-08-12T02:59:25.126Z,0
2016-08-12T02:59:49.252Z,0
2016-08-12T03:00:13.368Z,0
2016-08-12T03:00:37.477Z,0
2016-08-12T03:01:01.622Z,0
2016-08-12T03:01:25.727Z,0
2016-08-12T03:01:49.839Z,0
2016-08-12T03:02:13.987Z,0
2016-08-12T03:02:38.122Z,0
2016-08-12T03:03:02.241Z,0
2016-08-12T03:03:26.395Z,0
2016-08-12T03:03:50.519Z,0
2016-08-12T03:04:14.652Z,0
2016-08-12T03:04:38.818Z,0
2016-08-12T03:05:02.982Z,0
2016-08-12T03:05:27.092Z,0
2016-08-12T03:05:51.271Z,0
2016-08-12T03:06:15.423Z,0
2016-08-12T03:06:39.542Z,0
2016-08-12T03:07:03.637Z,0
2016-08-12T03:07:27.774Z,0
2016-08-12T03:07:51.921Z,0
2016-08-12T03:08:16.055Z,0
2016-08-12T03:08:40.190Z,0
2016-08-12T03:09:04.325Z,0
2016-08-12T03:09:28.472Z,0
2016-08-12T03:09:52.565Z,0
2016-08-12T03:10:16.664Z,0
2016-08-12T03:10:40.759Z,0
2016-08-12T03:11:04.879Z,0
2016-08-12T03:11:28.991Z,0
2016-08-12T03:11:53.108Z,0
2016-08-12T03:12:17.210Z,0
2016-08-12T03:12:41.339Z,0
2016-08-12T03:13:05.447Z,0
2016-08-12T03:13:29.553Z,0
2016-08-12T03:13:53.660Z,0
2016-08-12T03:14:17.767Z,0
2016-08-12T03:14:41.902Z,0
2016-08-12T03:15:06.033Z,0
2016-08-12T03:15:30.161Z,0
2016-08-12T03:15:54.295Z,0
2016-08-12T03:16:18.393Z,0
2016-08-12T03:16:42.496Z,0
2016-08-12T03:17:06.638Z,0
2016-08-12T03:17:30.750Z,0
2016-08-12T03:17:54.843Z,0
2016-08-12T03:18:19.013Z,0
2016-08-12T03:18:43.169Z,0
2016-08-12T03:19:07.333Z,0
2016-08-12T03:19:31.451Z,0
2016-08-12T03:19:55.600Z,0
2016-08-12T03:20:19.706Z,0
2016-08-12T03:20:43.803Z,0
2016-08-12T03:21:07.956Z,0
2016-08-12T03:21:32.094Z,0
2016-08-12T03:21:56.190Z,0
2016-08-12T03:22:20.314Z,0
2016-08-12T03:22:44.472Z,0
2016-08-12T03:23:08.611Z,0
2016-08-12T03:23:32.786Z,0
2016-08-12T03:23:56.968Z,0
2016-08-12T03:24:21.136Z,0
2016-08-12T03:24:45.266Z,0
2016-08-12T03:25:09.412Z,0
2016-08-12T03:25:33.652Z,0
2016-08-12T03:25:57.752Z,0
2016-08-12T03:26:21.953Z,0
2016-08-12T03:26:46.071Z,0
2016-08-12T03:27:10.180Z,0
2016-08-12T03:27:34.314Z,0
2016-08-12T03:27:58.444Z,0
2016-08-12T03:28:22.584Z,0
2016-08-12T03:28:46.725Z,0
2016-08-12T03:29:10.823Z,0
2016-08-12T03:29:34.950Z,0
2016-08-12T03:29:59.097Z,0
2016-08-12T03:30:23.236Z,0
2016-08-12T03:30:47.351Z,0
2016-08-12T03:31:11.491Z,0
2016-08-12T03:31:35.608Z,0
2016-08-12T03:31:59.751Z,0
2016-08-12T03:32:23.883Z,0
2016-08-12T03:32:48.003Z,0
2016-08-12T03:33:12.124Z,0
2016-08-12T03:33:36.264Z,0
2016-08-12T03:34:00.451Z,0
2016-08-12T03:34:24.562Z,0
2016-08-12T03:34:48.695Z,0
2016-08-12T03:35:12.813Z,0
2016-08-12T03:35:36.919Z,0
2016-08-12T03:36:01.027Z,0
2016-08-12T03:36:25.190Z,0
2016-08-12T03:36:49.352Z,0
2016-08-12T03:37:13.490Z,0
2016-08-12T03:37:37.586Z,0
2016-08-12T03:38:01.743Z,0
2016-08-12T03:38:25.875Z,0
2016-08-12T03:38:49.986Z,0
2016-08-12T03:39:14.078Z,0
2016-08-12T03:39:38.246Z,0
2016-08-12T03:40:02.394Z,0
2016-08-12T03:40:26.516Z,0
2016-08-12T03:40:50.620Z,0
2016-08-12T03:41:14.884Z,0
2016-08-12T03:41:39.014Z,0
2016-08-12T03:42:03.134Z,0
2016-08-12T03:42:27.506Z,0
2016-08-12T03:42:51.626Z,0
2016-08-12T03:43:15.850Z,5
2016-08-12T03:43:39.986Z,5
2016-08-12T03:44:04.105Z,5
2016-08-12T03:44:28.229Z,5
2016-08-12T03:44:52.329Z,5
2016-08-12T03:45:16.457Z,5
2016-08-12T03:45:40.614Z,5
2016-08-12T03:46:04.766Z,5
2016-08-12T03:46:28.910Z,5
2016-08-12T03:46:53.057Z,5
2016-08-12T03:47:17.218Z,5
2016-08-12T03:47:41.355Z,5
2016-08-12T03:48:05.466Z,5
2016-08-12T03:48:29.569Z,5
2016-08-12T03:48:53.699Z,5
2016-08-12T03:49:17.818Z,5
2016-08-12T03:49:41.928Z,5
2016-08-12T03:50:06.497Z,5
2016-08-12T03:50:31.016Z,5
2016-08-12T03:50:56.714Z,5
2016-08-12T03:51:21.268Z,5
2016-08-12T03:51:45.398Z,5
2016-08-12T03:52:09.524Z,5
2016-08-12T03:52:33.668Z,5
2016-08-12T03:52:57.782Z,5
2016-08-12T03:53:21.937Z,5
2016-08-12T03:53:46.101Z,5
2016-08-12T03:54:10.223Z,5
2016-08-12T03:54:34.351Z,5
2016-08-12T03:54:58.466Z,5
2016-08-12T03:55:22.578Z,5
2016-08-12T03:55:46.735Z,10
2016-08-12T03:56:10.881Z,10
2016-08-12T03:56:35.018Z,10
2016-08-12T03:56:59.146Z,10
2016-08-12T03:57:23.289Z,10
2016-08-12T03:57:47.453Z,10
2016-08-12T03:58:11.597Z,10
2016-08-12T03:58:35.714Z,10
2016-08-12T03:58:59.840Z,10
2016-08-12T03:59:23.988Z,10
2016-08-12T03:59:48.132Z,10
2016-08-12T04:00:12.357Z,10
2016-08-12T04:00:36.489Z,10
2016-08-12T04:01:00.681Z,10
2016-08-12T04:01:24.818Z,10
2016-08-12T04:01:48.964Z,10
2016-08-12T04:02:13.103Z,10
2016-08-12T04:02:37.215Z,10
2016-08-12T04:03:01.338Z,10
2016-08-12T04:03:25.510Z,10
2016-08-12T04:03:49.619Z,10
2016-08-12T04:04:13.737Z,10
2016-08-12T04:04:37.832Z,10
2016-08-12T04:05:01.958Z,15
2016-08-12T04:05:26.070Z,15
2016-08-12T04:05:50.180Z,15
2016-08-12T04:06:14.388Z,15
2016-08-12T04:06:38.517Z,15
2016-08-12T04:07:02.655Z,15
2016-08-12T04:07:26.794Z,15
2016-08-12T04:07:50.936Z,15
2016-08-12T04:08:14.835Z,15
2016-08-12T04:08:38.937Z,15
2016-08-12T04:09:03.072Z,15
2016-08-12T04:09:27.198Z,15
2016-08-12T04:09:51.323Z,15
2016-08-12T04:10:15.489Z,15
2016-08-12T04:10:39.626Z,15
2016-08-12T04:11:03.730Z,15
2016-08-12T04:11:27.867Z,15
2016-08-12T04:11:51.991Z,15
2016-08-12T04:12:16.116Z,15
2016-08-12T04:12:40.243Z,15
2016-08-12T04:13:04.366Z,15
2016-08-12T04:13:28.500Z,15
2016-08-12T04:13:52.618Z,15
2016-08-12T04:14:16.732Z,15
2016-08-12T04:14:40.853Z,15
2016-08-12T04:15:04.968Z,15
2016-08-12T04:15:29.081Z,15
2016-08-12T04:15:53.201Z,15
2016-08-12T04:16:17.320Z,15
2016-08-12T04:16:41.463Z,20
2016-08-12T04:17:05.639Z,20
2016-08-12T04:17:29.777Z,20
2016-08-12T04:17:53.875Z,20
2016-08-12T04:18:18.023Z,20
2016-08-12T04:18:42.138Z,20
2016-08-12T04:19:06.277Z,20
2016-08-12T04:19:30.419Z,25
2016-08-12T04:19:54.539Z,25
2016-08-12T04:20:18.670Z,25
2016-08-12T04:20:42.780Z,25
2016-08-12T04:21:06.891Z,25
2016-08-12T04:21:30.998Z,25
2016-08-12T04:21:55.112Z,25
2016-08-12T04:22:19.241Z,25
2016-08-12T04:22:43.338Z,25
2016-08-12T04:23:07.452Z,25
2016-08-12T04:23:31.555Z,25
2016-08-12T04:23:55.684Z,25
2016-08-12T04:24:19.814Z,25
2016-08-12T04:24:43.974Z,25
2016-08-12T04:25:08.079Z,25
2016-08-12T04:25:32.250Z,25
2016-08-12T04:25:56.370Z,25
2016-08-12T04:26:20.488Z,25
2016-08-12T04:26:44.624Z,25
2016-08-12T04:27:08.731Z,25
2016-08-12T04:27:32.868Z,25
2016-08-12T04:27:57.068Z,30
2016-08-12T04:28:21.200Z,30
2016-08-12T04:28:45.337Z,30
2016-08-12T04:29:09.516Z,30
2016-08-12T04:29:33.619Z,35
2016-08-12T04:29:57.735Z,35
2016-08-12T04:30:21.871Z,35
2016-08-12T04:30:46.014Z,35
2016-08-12T04:31:10.200Z,40
2016-08-12T04:31:34.363Z,40
2016-08-12T04:31:58.490Z,40
2016-08-12T04:32:23.230Z,40
2016-08-12T04:32:47.334Z,45
2016-08-12T04:33:11.519Z,45
2016-08-12T04:33:35.640Z,45
2016-08-12T04:33:59.796Z,50
2016-08-12T04:34:24.003Z,50
2016-08-12T04:34:48.136Z,50
2016-08-12T04:35:12.298Z,55
2016-08-12T04:35:36.423Z,55
2016-08-12T04:36:00.559Z,55
2016-08-12T04:36:24.680Z,55
2016-08-12T04:36:48.837Z,55
2016-08-12T04:37:12.944Z,55
2016-08-12T04:37:37.141Z,55
2016-08-12T04:38:01.307Z,55
2016-08-12T04:38:25.449Z,55
2016-08-12T04:38:49.596Z,55
2016-08-12T04:39:13.722Z,55
2016-08-12T04:39:37.923Z,55
2016-08-12T04:40:02.053Z,55
2016-08-12T04:40:26.162Z,55
2016-08-12T04:40:50.302Z,55
2016-08-12T04:41:14.443Z,60
2016-08-12T04:41:38.569Z,55
2016-08-12T04:42:02.729Z,55
2016-08-12T04:42:26.872Z,55
2016-08-12T04:42:50.975Z,60
2016-08-12T04:43:15.139Z,60
2016-08-12T04:43:39.304Z,60
2016-08-12T04:44:03.454Z,60
2016-08-12T04:44:27.651Z,60
2016-08-12T04:44:51.796Z,60
2016-08-12T04:45:15.906Z,60
2016-08-12T04:45:40.030Z,55
2016-08-12T04:46:04.162Z,55
2016-08-12T04:46:28.338Z,55
2016-08-12T04:46:52.463Z,55
2016-08-12T04:47:16.629Z,55
2016-08-12T04:47:40.758Z,55
2016-08-12T04:48:04.874Z,55
2016-08-12T04:48:28.985Z,60
2016-08-12T04:48:53.125Z,55
2016-08-12T04:49:17.301Z,55
2016-08-12T04:49:41.494Z,55
2016-08-12T04:50:05.679Z,55
2016-08-12T04:50:29.795Z,55
2016-08-12T04:50:53.974Z,60
2016-08-12T04:51:18.136Z,60
2016-08-12T04:51:42.166Z,60
2016-08-12T04:52:06.287Z,60
2016-08-12T04:52:30.392Z,60
2016-08-12T04:52:54.515Z,55
2016-08-12T04:53:18.651Z,55
2016-08-12T04:53:42.829Z,55
2016-08-12T04:54:06.980Z,55
2016-08-12T04:54:31.137Z,55
2016-08-12T04:54:55.288Z,55
2016-08-12T04:55:19.419Z,55
2016-08-12T04:55:43.557Z,55
2016-08-12T04:56:07.739Z,55
2016-08-12T04:56:31.930Z,55
2016-08-12T04:56:56.058Z,55
2016-08-12T04:57:20.203Z,55
2016-08-12T04:57:44.351Z,60
2016-08-12T04:58:08.493Z,60
2016-08-12T04:58:32.654Z,65
2016-08-12T04:58:56.805Z,65
2016-08-12T04:59:20.995Z,65
2016-08-12T04:59:45.200Z,65
2016-08-12T05:00:09.385Z,70
2016-08-12T05:00:33.542Z,70
2016-08-12T05:00:57.673Z,70
2016-08-12T05:01:21.798Z,70
2016-08-12T05:01:45.958Z,70
2016-08-12T05:02:10.133Z,70
2016-08-12T05:02:34.258Z,70
2016-08-12T05:02:58.412Z,70
2016-08-12T05:03:22.570Z,65
2016-08-12T05:03:46.661Z,65
2016-08-12T05:04:11.717Z,60
2016-08-12T05:04:35.813Z,60
2016-08-12T05:05:00.002Z,55
2016-08-12T05:05:24.243Z,55
2016-08-12T05:05:48.393Z,50
2016-08-12T05:06:12.658Z,50
2016-08-12T05:06:36.789Z,45
2016-08-12T05:07:00.942Z,45
2016-08-12T05:07:25.087Z,45
2016-08-12T05:07:49.223Z,45
2016-08-12T05:08:13.362Z,45
2016-08-12T05:08:37.468Z,45
2016-08-12T05:09:01.607Z,45
2016-08-12T05:09:25.742Z,45
2016-08-12T05:09:49.905Z,45
2016-08-12T05:10:14.038Z,45
2016-08-12T05:10:38.182Z,45
2016-08-12T05:11:02.310Z,45
2016-08-12T05:11:26.456Z,50
2016-08-12T05:11:50.612Z,50
2016-08-12T05:12:14.713Z,50
2016-08-12T05:12:38.842Z,50
2016-08-12T05:13:03.059Z,50
2016-08-12T05:13:27.198Z,55
2016-08-12T05:13:51.307Z,55
2016-08-12T05:14:15.510Z,60
2016-08-12T05:14:39.696Z,60
2016-08-12T05:15:03.793Z,60
2016-08-12T05:15:27.973Z,60
2016-08-12T05:15:52.099Z,65
2016-08-12T05:16:16.253Z,65
2016-08-12T05:16:40.389Z,70
2016-08-12T05:17:04.520Z,70
2016-08-12T05:17:28.661Z,70
2016-08-12T05:17:52.778Z,70
2016-08-12T05:18:16.940Z,70
2016-08-12T05:18:41.070Z,70
2016-08-12T05:19:05.196Z,70
2016-08-12T05:19:29.390Z,70
2016-08-12T05:19:53.521Z,70
2016-08-12T05:20:17.646Z,70
2016-08-12T05:20:41.809Z,70
2016-08-12T05:21:05.927Z,75
2016-08-12T05:21:30.080Z,75
2016-08-12T05:21:54.209Z,75
2016-08-12T05:22:18.346Z,80
2016-08-12T05:22:42.486Z,80
2016-08-12T05:23:06.665Z,80
2016-08-12T05:23:30.807Z,80
2016-08-12T05:23:54.966Z,80
2016-08-12T05:24:19.104Z,80
2016-08-12T05:24:43.232Z,80
2016-08-12T05:25:07.412Z,80
2016-08-12T05:25:31.604Z,75
2016-08-12T05:25:55.780Z,75
2016-08-12T05:26:19.947Z,75
2016-08-12T05:26:44.157Z,80
2016-08-12T05:27:08.299Z,75
2016-08-12T05:27:32.412Z,75
2016-08-12T05:27:56.552Z,80
2016-08-12T05:28:20.715Z,85
2016-08-12T05:28:44.917Z,90
2016-08-12T05:29:09.164Z,95
2016-08-12T05:29:33.283Z,100
2016-08-12T05:29:57.452Z,100
2016-08-12T05:30:21.559Z,105
2016-08-12T05:30:45.751Z,115
2016-08-12T05:31:09.931Z,120
2016-08-12T05:31:34.080Z,125
2016-08-12T05:31:58.222Z,130
2016-08-12T05:32:22.376Z,130
2016-08-12T05:32:46.561Z,130
2016-08-12T05:33:10.697Z,130
2016-08-12T05:33:34.828Z,135
2016-08-12T05:33:58.963Z,135
2016-08-12T05:34:23.103Z,135
2016-08-12T05:34:47.216Z,130
2016-08-12T05:35:11.344Z,130
2016-08-12T05:35:35.512Z,130
2016-08-12T05:35:59.664Z,130
2016-08-12T05:36:23.786Z,130
2016-08-12T05:36:47.917Z,130
2016-08-12T05:37:12.058Z,130
2016-08-12T05:37:36.207Z,125
2016-08-12T05:38:00.462Z,130
2016-08-12T05:38:24.615Z,130
2016-08-12T05:38:48.797Z,135
2016-08-12T05:39:12.963Z,140
2016-08-12T05:39:37.141Z,145
2016-08-12T05:40:01.294Z,155
2016-08-12T05:40:25.432Z,165
2016-08-12T05:40:49.539Z,180
2016-08-12T05:41:13.697Z,185
2016-08-12T05:41:37.845Z,190
2016-08-12T05:42:01.995Z,195
2016-08-12T05:42:26.144Z,195
2016-08-12T05:42:50.275Z,190
2016-08-12T05:43:14.383Z,185
2016-08-12T05:43:38.529Z,185
2016-08-12T05:44:02.706Z,180
2016-08-12T05:44:26.846Z,175
2016-08-12T05:44:50.974Z,170
2016-08-12T05:45:15.160Z,170
2016-08-12T05:45:39.301Z,165
2016-08-12T05:46:03.421Z,170
2016-08-12T05:46:27.554Z,175
2016-08-12T05:46:51.667Z,180
2016-08-12T05:47:15.787Z,180
2016-08-12T05:47:39.928Z,180
2016-08-12T05:48:04.027Z,180
2016-08-12T05:48:28.184Z,175
2016-08-12T05:48:52.344Z,160
2016-08-12T05:49:16.490Z,150
2016-08-12T05:49:40.634Z,150
2016-08-12T05:50:04.766Z,150
2016-08-12T05:50:28.877Z,145
2016-08-12T05:50:53.037Z,145
2016-08-12T05:51:17.146Z,150
2016-08-12T05:51:41.267Z,150